<?xml version="1.0" encoding="UTF-8" standalone="no" ?>
<gpx xmlns="http://www.topografix.com/GPX/1/1" xmlns:xsi="http://www.w3.org/2001/XMLSchema-instance" xsi:schemaLocation="http://www.topografix.com/GPX/1/1 http://www.topografix.com/GPX/1/1/gpx.xsd" version="1.1" creator="VisuGPX - https://www.visugpx.com">
  <metadata>
    <name>AVIRON FONTAINEBLEAU MORET</name>
    <desc><![CDATA[RANDO JAZZ ACCOMPAGNANTS J1-J2]]></desc>
  </metadata>
  <trk>
    <name><![CDATA[AVIRON FONTAINEBLEAU]]></name>
    <trkseg>
      <trkpt lat="48.44872" lon="2.759">
        <ele>49.5</ele>
        <time>2019-06-29T15:29:24Z</time>
      </trkpt>
      <trkpt lat="48.44638" lon="2.75551">
        <ele>55.7</ele>
        <time>2019-06-29T15:31:35Z</time>
      </trkpt>
      <trkpt lat="48.44519" lon="2.7539">
        <ele>54.3</ele>
        <time>2019-06-29T15:32:39Z</time>
      </trkpt>
      <trkpt lat="48.44262" lon="2.75117">
        <ele>45.8</ele>
        <time>2019-06-29T15:34:45Z</time>
      </trkpt>
      <trkpt lat="48.43811" lon="2.7477">
        <ele>58.3</ele>
        <time>2019-06-29T15:38:08Z</time>
      </trkpt>
      <trkpt lat="48.4327" lon="2.74644">
        <ele>22.6</ele>
        <time>2019-06-29T15:41:47Z</time>
      </trkpt>
      <trkpt lat="48.4299" lon="2.74673">
        <ele>39.5</ele>
        <time>2019-06-29T15:43:39Z</time>
      </trkpt>
      <trkpt lat="48.42964" lon="2.74407">
        <ele>42.9</ele>
        <time>2019-06-29T15:44:51Z</time>
      </trkpt>
      <trkpt lat="48.4296" lon="2.74346">
        <ele>41.7</ele>
        <time>2019-06-29T15:45:07Z</time>
      </trkpt>
      <trkpt lat="48.43004" lon="2.74285">
        <ele>48.1</ele>
        <time>2019-06-29T15:45:31Z</time>
      </trkpt>
      <trkpt lat="48.4304" lon="2.74256">
        <ele>50.6</ele>
        <time>2019-06-29T15:45:47Z</time>
      </trkpt>
      <trkpt lat="48.43088" lon="2.74233">
        <ele>54.9</ele>
        <time>2019-06-29T15:46:08Z</time>
      </trkpt>
      <trkpt lat="48.43134" lon="2.7421">
        <ele>62.1</ele>
        <time>2019-06-29T15:46:27Z</time>
      </trkpt>
      <trkpt lat="48.43038" lon="2.74198">
        <ele>66.7</ele>
        <time>2019-06-29T15:47:06Z</time>
      </trkpt>
      <trkpt lat="48.42923" lon="2.7421">
        <ele>69</ele>
        <time>2019-06-29T15:47:52Z</time>
      </trkpt>
      <trkpt lat="48.42694" lon="2.74174">
        <ele>67.1</ele>
        <time>2019-06-29T15:49:24Z</time>
      </trkpt>
      <trkpt lat="48.42627" lon="2.74033">
        <ele>70.3</ele>
        <time>2019-06-29T15:50:10Z</time>
      </trkpt>
      <trkpt lat="48.42623" lon="2.7388">
        <ele>79.2</ele>
        <time>2019-06-29T15:50:51Z</time>
      </trkpt>
      <trkpt lat="48.42537" lon="2.73634">
        <ele>73.1</ele>
        <time>2019-06-29T15:52:05Z</time>
      </trkpt>
      <trkpt lat="48.42477" lon="2.73561">
        <ele>78.5</ele>
        <time>2019-06-29T15:52:35Z</time>
      </trkpt>
      <trkpt lat="48.4237" lon="2.73431">
        <ele>81.3</ele>
        <time>2019-06-29T15:53:30Z</time>
      </trkpt>
      <trkpt lat="48.42433" lon="2.73335">
        <ele>88</ele>
        <time>2019-06-29T15:54:06Z</time>
      </trkpt>
      <trkpt lat="48.42434" lon="2.73333">
        <ele>88.6</ele>
        <time>2019-06-29T15:54:07Z</time>
      </trkpt>
      <trkpt lat="48.42554" lon="2.73289">
        <ele>91.3</ele>
        <time>2019-06-29T15:54:57Z</time>
      </trkpt>
      <trkpt lat="48.42664" lon="2.73156">
        <ele>99.8</ele>
        <time>2019-06-29T15:55:53Z</time>
      </trkpt>
      <trkpt lat="48.42834" lon="2.73066">
        <ele>105.2</ele>
        <time>2019-06-29T15:57:05Z</time>
      </trkpt>
      <trkpt lat="48.42959" lon="2.73116">
        <ele>100.6</ele>
        <time>2019-06-29T15:57:57Z</time>
      </trkpt>
      <trkpt lat="48.43164" lon="2.73243">
        <ele>112.1</ele>
        <time>2019-06-29T15:59:26Z</time>
      </trkpt>
      <trkpt lat="48.43288" lon="2.73176">
        <ele>107.2</ele>
        <time>2019-06-29T16:00:18Z</time>
      </trkpt>
      <trkpt lat="48.43372" lon="2.72856">
        <ele>113.2</ele>
        <time>2019-06-29T16:01:50Z</time>
      </trkpt>
      <trkpt lat="48.43396" lon="2.72658">
        <ele>127.2</ele>
        <time>2019-06-29T16:02:43Z</time>
      </trkpt>
      <trkpt lat="48.43391" lon="2.72443">
        <ele>120.9</ele>
        <time>2019-06-29T16:03:40Z</time>
      </trkpt>
      <trkpt lat="48.43335" lon="2.7237">
        <ele>125.4</ele>
        <time>2019-06-29T16:04:10Z</time>
      </trkpt>
      <trkpt lat="48.43244" lon="2.72426">
        <ele>129.4</ele>
        <time>2019-06-29T16:04:50Z</time>
      </trkpt>
      <trkpt lat="48.43195" lon="2.72546">
        <ele>118.1</ele>
        <time>2019-06-29T16:05:27Z</time>
      </trkpt>
      <trkpt lat="48.42998" lon="2.72542">
        <ele>133.8</ele>
        <time>2019-06-29T16:06:46Z</time>
      </trkpt>
      <trkpt lat="48.42891" lon="2.72405">
        <ele>126.9</ele>
        <time>2019-06-29T16:07:42Z</time>
      </trkpt>
      <trkpt lat="48.42816" lon="2.7207">
        <ele>140.3</ele>
        <time>2019-06-29T16:09:16Z</time>
      </trkpt>
      <trkpt lat="48.42788" lon="2.72014">
        <ele>139</ele>
        <time>2019-06-29T16:09:35Z</time>
      </trkpt>
      <trkpt lat="48.42762" lon="2.72116">
        <ele>143.3</ele>
        <time>2019-06-29T16:10:04Z</time>
      </trkpt>
      <trkpt lat="48.42753" lon="2.71993">
        <ele>141.1</ele>
        <time>2019-06-29T16:10:36Z</time>
      </trkpt>
      <trkpt lat="48.42659" lon="2.71961">
        <ele>157.8</ele>
        <time>2019-06-29T16:11:15Z</time>
      </trkpt>
      <trkpt lat="48.4261" lon="2.72102">
        <ele>135.1</ele>
        <time>2019-06-29T16:11:57Z</time>
      </trkpt>
      <trkpt lat="48.42554" lon="2.72091">
        <ele>141.3</ele>
        <time>2019-06-29T16:12:20Z</time>
      </trkpt>
      <trkpt lat="48.42482" lon="2.72115">
        <ele>137.4</ele>
        <time>2019-06-29T16:12:49Z</time>
      </trkpt>
      <trkpt lat="48.42445" lon="2.71945">
        <ele>149</ele>
        <time>2019-06-29T16:13:37Z</time>
      </trkpt>
      <trkpt lat="48.42379" lon="2.71926">
        <ele>143.6</ele>
        <time>2019-06-29T16:14:04Z</time>
      </trkpt>
      <trkpt lat="48.42272" lon="2.71865">
        <ele>145.9</ele>
        <time>2019-06-29T16:14:50Z</time>
      </trkpt>
      <trkpt lat="48.42259" lon="2.71912">
        <ele>144.2</ele>
        <time>2019-06-29T16:15:03Z</time>
      </trkpt>
      <trkpt lat="48.42145" lon="2.71829">
        <ele>145.3</ele>
        <time>2019-06-29T16:15:54Z</time>
      </trkpt>
      <trkpt lat="48.42142" lon="2.71813">
        <ele>145.6</ele>
        <time>2019-06-29T16:15:58Z</time>
      </trkpt>
      <trkpt lat="48.42083" lon="2.71833">
        <ele>137.3</ele>
        <time>2019-06-29T16:16:23Z</time>
      </trkpt>
      <trkpt lat="48.42084" lon="2.71825">
        <ele>137.4</ele>
        <time>2019-06-29T16:16:25Z</time>
      </trkpt>
      <trkpt lat="48.42141" lon="2.71634">
        <ele>153.2</ele>
        <time>2019-06-29T16:17:21Z</time>
      </trkpt>
      <trkpt lat="48.42175" lon="2.71548">
        <ele>149.4</ele>
        <time>2019-06-29T16:17:47Z</time>
      </trkpt>
      <trkpt lat="48.42171" lon="2.71557">
        <ele>149.7</ele>
        <time>2019-06-29T16:17:50Z</time>
      </trkpt>
      <trkpt lat="48.41981" lon="2.71483">
        <ele>126.9</ele>
        <time>2019-06-29T16:19:09Z</time>
      </trkpt>
      <trkpt lat="48.42027" lon="2.71401">
        <ele>131.1</ele>
        <time>2019-06-29T16:19:37Z</time>
      </trkpt>
      <trkpt lat="48.4212" lon="2.71335">
        <ele>138.4</ele>
        <time>2019-06-29T16:20:19Z</time>
      </trkpt>
      <trkpt lat="48.42168" lon="2.71319">
        <ele>140.8</ele>
        <time>2019-06-29T16:20:38Z</time>
      </trkpt>
      <trkpt lat="48.42267" lon="2.71287">
        <ele>139</ele>
        <time>2019-06-29T16:21:19Z</time>
      </trkpt>
      <trkpt lat="48.42445" lon="2.7108">
        <ele>141.1</ele>
        <time>2019-06-29T16:22:49Z</time>
      </trkpt>
      <trkpt lat="48.4255" lon="2.71063">
        <ele>157.3</ele>
        <time>2019-06-29T16:23:31Z</time>
      </trkpt>
      <trkpt lat="48.42536" lon="2.70999">
        <ele>150.4</ele>
        <time>2019-06-29T16:23:49Z</time>
      </trkpt>
      <trkpt lat="48.42538" lon="2.70996">
        <ele>149.8</ele>
        <time>2019-06-29T16:23:50Z</time>
      </trkpt>
      <trkpt lat="48.42447" lon="2.71031">
        <ele>136.7</ele>
        <time>2019-06-29T16:24:28Z</time>
      </trkpt>
      <trkpt lat="48.42538" lon="2.70878">
        <ele>139.2</ele>
        <time>2019-06-29T16:25:22Z</time>
      </trkpt>
      <trkpt lat="48.4257" lon="2.70819">
        <ele>137.1</ele>
        <time>2019-06-29T16:25:42Z</time>
      </trkpt>
      <trkpt lat="48.42719" lon="2.70738">
        <ele>155</ele>
        <time>2019-06-29T16:26:46Z</time>
      </trkpt>
      <trkpt lat="48.42795" lon="2.70775">
        <ele>153.8</ele>
        <time>2019-06-29T16:27:18Z</time>
      </trkpt>
      <trkpt lat="48.42937" lon="2.70782">
        <ele>143</ele>
        <time>2019-06-29T16:28:14Z</time>
      </trkpt>
      <trkpt lat="48.43017" lon="2.70705">
        <ele>138.6</ele>
        <time>2019-06-29T16:28:53Z</time>
      </trkpt>
      <trkpt lat="48.43035" lon="2.7068">
        <ele>142.9</ele>
        <time>2019-06-29T16:29:02Z</time>
      </trkpt>
      <trkpt lat="48.43129" lon="2.70709">
        <ele>143.7</ele>
        <time>2019-06-29T16:29:41Z</time>
      </trkpt>
      <trkpt lat="48.4323" lon="2.70631">
        <ele>144.8</ele>
        <time>2019-06-29T16:30:26Z</time>
      </trkpt>
      <trkpt lat="48.43379" lon="2.70573">
        <ele>140.8</ele>
        <time>2019-06-29T16:31:28Z</time>
      </trkpt>
      <trkpt lat="48.43379" lon="2.70573">
        <ele>140.8</ele>
        <time>2019-06-29T16:31:28Z</time>
      </trkpt>
      <trkpt lat="48.43428" lon="2.70627">
        <ele>133.2</ele>
        <time>2019-06-29T16:31:52Z</time>
      </trkpt>
      <trkpt lat="48.43486" lon="2.7101">
        <ele>127.9</ele>
        <time>2019-06-29T16:33:36Z</time>
      </trkpt>
      <trkpt lat="48.43524" lon="2.71077">
        <ele>119.2</ele>
        <time>2019-06-29T16:34:00Z</time>
      </trkpt>
      <trkpt lat="48.4357" lon="2.71055">
        <ele>111.5</ele>
        <time>2019-06-29T16:34:19Z</time>
      </trkpt>
      <trkpt lat="48.43629" lon="2.70989">
        <ele>123.2</ele>
        <time>2019-06-29T16:34:49Z</time>
      </trkpt>
      <trkpt lat="48.43693" lon="2.70855">
        <ele>128.3</ele>
        <time>2019-06-29T16:35:32Z</time>
      </trkpt>
      <trkpt lat="48.43774" lon="2.70813">
        <ele>132.8</ele>
        <time>2019-06-29T16:36:07Z</time>
      </trkpt>
      <trkpt lat="48.43711" lon="2.70731">
        <ele>136.5</ele>
        <time>2019-06-29T16:36:40Z</time>
      </trkpt>
      <trkpt lat="48.43679" lon="2.70654">
        <ele>140.1</ele>
        <time>2019-06-29T16:37:04Z</time>
      </trkpt>
      <trkpt lat="48.43681" lon="2.7058">
        <ele>134</ele>
        <time>2019-06-29T16:37:24Z</time>
      </trkpt>
      <trkpt lat="48.43784" lon="2.70569">
        <ele>130.2</ele>
        <time>2019-06-29T16:38:05Z</time>
      </trkpt>
      <trkpt lat="48.43807" lon="2.70589">
        <ele>125.8</ele>
        <time>2019-06-29T16:38:16Z</time>
      </trkpt>
      <trkpt lat="48.43788" lon="2.70566">
        <ele>129.6</ele>
        <time>2019-06-29T16:38:26Z</time>
      </trkpt>
      <trkpt lat="48.43709" lon="2.70432">
        <ele>134.9</ele>
        <time>2019-06-29T16:39:13Z</time>
      </trkpt>
      <trkpt lat="48.43697" lon="2.70397">
        <ele>132.7</ele>
        <time>2019-06-29T16:39:24Z</time>
      </trkpt>
      <trkpt lat="48.43697" lon="2.70397">
        <ele>132.7</ele>
        <time>2019-06-29T16:39:24Z</time>
      </trkpt>
      <trkpt lat="48.43702" lon="2.70365">
        <ele>131.8</ele>
        <time>2019-06-29T16:39:33Z</time>
      </trkpt>
      <trkpt lat="48.43744" lon="2.70351">
        <ele>126.7</ele>
        <time>2019-06-29T16:39:50Z</time>
      </trkpt>
      <trkpt lat="48.43716" lon="2.70298">
        <ele>127.3</ele>
        <time>2019-06-29T16:40:08Z</time>
      </trkpt>
      <trkpt lat="48.43714" lon="2.70235">
        <ele>120.6</ele>
        <time>2019-06-29T16:40:25Z</time>
      </trkpt>
      <trkpt lat="48.43613" lon="2.70436">
        <ele>121.5</ele>
        <time>2019-06-29T16:41:31Z</time>
      </trkpt>
      <trkpt lat="48.43557" lon="2.70569">
        <ele>128.3</ele>
        <time>2019-06-29T16:42:13Z</time>
      </trkpt>
      <trkpt lat="48.43506" lon="2.70495">
        <ele>125.6</ele>
        <time>2019-06-29T16:42:42Z</time>
      </trkpt>
      <trkpt lat="48.43492" lon="2.70437">
        <ele>127.5</ele>
        <time>2019-06-29T16:42:58Z</time>
      </trkpt>
      <trkpt lat="48.43459" lon="2.70425">
        <ele>135.1</ele>
        <time>2019-06-29T16:43:12Z</time>
      </trkpt>
      <trkpt lat="48.43274" lon="2.70383">
        <ele>147.9</ele>
        <time>2019-06-29T16:44:27Z</time>
      </trkpt>
      <trkpt lat="48.43157" lon="2.70393">
        <ele>149.1</ele>
        <time>2019-06-29T16:45:14Z</time>
      </trkpt>
      <trkpt lat="48.42907" lon="2.70422">
        <ele>154.9</ele>
        <time>2019-06-29T16:46:54Z</time>
      </trkpt>
      <trkpt lat="48.42924" lon="2.70228">
        <ele>153.8</ele>
        <time>2019-06-29T16:47:46Z</time>
      </trkpt>
      <trkpt lat="48.43017" lon="2.70147">
        <ele>149.5</ele>
        <time>2019-06-29T16:48:29Z</time>
      </trkpt>
      <trkpt lat="48.43043" lon="2.69492">
        <ele>140.7</ele>
        <time>2019-06-29T16:51:23Z</time>
      </trkpt>
      <trkpt lat="48.43018" lon="2.69451">
        <ele>141.9</ele>
        <time>2019-06-29T16:51:38Z</time>
      </trkpt>
      <trkpt lat="48.42996" lon="2.69372">
        <ele>143.7</ele>
        <time>2019-06-29T16:52:01Z</time>
      </trkpt>
      <trkpt lat="48.42991" lon="2.69301">
        <ele>139.1</ele>
        <time>2019-06-29T16:52:20Z</time>
      </trkpt>
      <trkpt lat="48.4287" lon="2.69252">
        <ele>149.2</ele>
        <time>2019-06-29T16:53:10Z</time>
      </trkpt>
      <trkpt lat="48.42757" lon="2.69081">
        <ele>153.3</ele>
        <time>2019-06-29T16:54:14Z</time>
      </trkpt>
      <trkpt lat="48.42882" lon="2.68907">
        <ele>142.8</ele>
        <time>2019-06-29T16:55:22Z</time>
      </trkpt>
      <trkpt lat="48.4287" lon="2.68812">
        <ele>147.9</ele>
        <time>2019-06-29T16:55:48Z</time>
      </trkpt>
      <trkpt lat="48.4279" lon="2.6871">
        <ele>140.2</ele>
        <time>2019-06-29T16:56:30Z</time>
      </trkpt>
      <trkpt lat="48.42811" lon="2.68607">
        <ele>142.3</ele>
        <time>2019-06-29T16:56:58Z</time>
      </trkpt>
      <trkpt lat="48.42919" lon="2.68537">
        <ele>136.1</ele>
        <time>2019-06-29T16:57:45Z</time>
      </trkpt>
      <trkpt lat="48.43079" lon="2.68301">
        <ele>129</ele>
        <time>2019-06-29T16:59:15Z</time>
      </trkpt>
      <trkpt lat="48.42991" lon="2.68237">
        <ele>135.5</ele>
        <time>2019-06-29T16:59:53Z</time>
      </trkpt>
      <trkpt lat="48.42945" lon="2.68135">
        <ele>122.7</ele>
        <time>2019-06-29T17:00:26Z</time>
      </trkpt>
      <trkpt lat="48.42849" lon="2.6822">
        <ele>145.9</ele>
        <time>2019-06-29T17:01:11Z</time>
      </trkpt>
      <trkpt lat="48.42636" lon="2.67977">
        <ele>154.7</ele>
        <time>2019-06-29T17:02:58Z</time>
      </trkpt>
      <trkpt lat="48.4269" lon="2.67903">
        <ele>152.3</ele>
        <time>2019-06-29T17:03:27Z</time>
      </trkpt>
      <trkpt lat="48.42634" lon="2.67854">
        <ele>151.6</ele>
        <time>2019-06-29T17:03:53Z</time>
      </trkpt>
      <trkpt lat="48.42659" lon="2.6779">
        <ele>155.7</ele>
        <time>2019-06-29T17:04:13Z</time>
      </trkpt>
      <trkpt lat="48.42685" lon="2.67741">
        <ele>156.8</ele>
        <time>2019-06-29T17:04:29Z</time>
      </trkpt>
      <trkpt lat="48.42615" lon="2.67706">
        <ele>158.3</ele>
        <time>2019-06-29T17:04:59Z</time>
      </trkpt>
      <trkpt lat="48.42803" lon="2.66626">
        <ele>140.1</ele>
        <time>2019-06-29T17:09:55Z</time>
      </trkpt>
      <trkpt lat="48.42821" lon="2.66642">
        <ele>142.6</ele>
        <time>2019-06-29T17:10:04Z</time>
      </trkpt>
      <trkpt lat="48.43056" lon="2.66505">
        <ele>151.3</ele>
        <time>2019-06-29T17:11:45Z</time>
      </trkpt>
      <trkpt lat="48.43066" lon="2.66578">
        <ele>149.9</ele>
        <time>2019-06-29T17:12:04Z</time>
      </trkpt>
      <trkpt lat="48.43356" lon="2.6661">
        <ele>154.5</ele>
        <time>2019-06-29T17:14:01Z</time>
      </trkpt>
      <trkpt lat="48.43529" lon="2.66638">
        <ele>148.4</ele>
        <time>2019-06-29T17:15:10Z</time>
      </trkpt>
      <trkpt lat="48.43613" lon="2.66716">
        <ele>148.2</ele>
        <time>2019-06-29T17:15:50Z</time>
      </trkpt>
      <trkpt lat="48.43737" lon="2.66699">
        <ele>148</ele>
        <time>2019-06-29T17:16:40Z</time>
      </trkpt>
      <trkpt lat="48.43922" lon="2.66793">
        <ele>153.9</ele>
        <time>2019-06-29T17:17:58Z</time>
      </trkpt>
      <trkpt lat="48.44122" lon="2.66888">
        <ele>146.3</ele>
        <time>2019-06-29T17:19:22Z</time>
      </trkpt>
      <trkpt lat="48.44144" lon="2.66892">
        <ele>141.2</ele>
        <time>2019-06-29T17:19:31Z</time>
      </trkpt>
      <trkpt lat="48.4416" lon="2.66851">
        <ele>146</ele>
        <time>2019-06-29T17:19:43Z</time>
      </trkpt>
      <trkpt lat="48.44207" lon="2.66984">
        <ele>138.9</ele>
        <time>2019-06-29T17:20:23Z</time>
      </trkpt>
      <trkpt lat="48.4429" lon="2.67017">
        <ele>139.1</ele>
        <time>2019-06-29T17:20:58Z</time>
      </trkpt>
      <trkpt lat="48.44409" lon="2.66961">
        <ele>136.2</ele>
        <time>2019-06-29T17:21:48Z</time>
      </trkpt>
      <trkpt lat="48.44566" lon="2.67253">
        <ele>155.7</ele>
        <time>2019-06-29T17:23:27Z</time>
      </trkpt>
      <trkpt lat="48.44647" lon="2.67417">
        <ele>156</ele>
        <time>2019-06-29T17:24:22Z</time>
      </trkpt>
      <trkpt lat="48.44652" lon="2.67481">
        <ele>145.1</ele>
        <time>2019-06-29T17:24:39Z</time>
      </trkpt>
      <trkpt lat="48.44659" lon="2.6764">
        <ele>133.8</ele>
        <time>2019-06-29T17:25:21Z</time>
      </trkpt>
      <trkpt lat="48.44706" lon="2.67743">
        <ele>121</ele>
        <time>2019-06-29T17:25:54Z</time>
      </trkpt>
      <trkpt lat="48.45001" lon="2.6806">
        <ele>110.1</ele>
        <time>2019-06-29T17:28:19Z</time>
      </trkpt>
      <trkpt lat="48.45183" lon="2.68278">
        <ele>100.1</ele>
        <time>2019-06-29T17:29:52Z</time>
      </trkpt>
      <trkpt lat="48.45334" lon="2.68472">
        <ele>88.4</ele>
        <time>2019-06-29T17:31:12Z</time>
      </trkpt>
      <trkpt lat="48.45368" lon="2.68752">
        <ele>110.5</ele>
        <time>2019-06-29T17:32:27Z</time>
      </trkpt>
      <trkpt lat="48.45397" lon="2.69051">
        <ele>98.7</ele>
        <time>2019-06-29T17:33:47Z</time>
      </trkpt>
      <trkpt lat="48.45532" lon="2.69106">
        <ele>103.1</ele>
        <time>2019-06-29T17:34:43Z</time>
      </trkpt>
      <trkpt lat="48.45673" lon="2.68966">
        <ele>104.4</ele>
        <time>2019-06-29T17:35:51Z</time>
      </trkpt>
      <trkpt lat="48.45732" lon="2.69007">
        <ele>92.1</ele>
        <time>2019-06-29T17:36:17Z</time>
      </trkpt>
      <trkpt lat="48.4578" lon="2.69068">
        <ele>85.1</ele>
        <time>2019-06-29T17:36:42Z</time>
      </trkpt>
      <trkpt lat="48.45793" lon="2.69165">
        <ele>89.7</ele>
        <time>2019-06-29T17:37:08Z</time>
      </trkpt>
      <trkpt lat="48.45769" lon="2.69262">
        <ele>109.5</ele>
        <time>2019-06-29T17:37:36Z</time>
      </trkpt>
      <trkpt lat="48.45788" lon="2.69415">
        <ele>100.2</ele>
        <time>2019-06-29T17:38:17Z</time>
      </trkpt>
      <trkpt lat="48.45838" lon="2.69558">
        <ele>92.6</ele>
        <time>2019-06-29T17:39:00Z</time>
      </trkpt>
      <trkpt lat="48.45883" lon="2.69594">
        <ele>93.8</ele>
        <time>2019-06-29T17:39:20Z</time>
      </trkpt>
      <trkpt lat="48.45865" lon="2.69862">
        <ele>76.9</ele>
        <time>2019-06-29T17:40:32Z</time>
      </trkpt>
      <trkpt lat="48.45818" lon="2.70012">
        <ele>86</ele>
        <time>2019-06-29T17:41:16Z</time>
      </trkpt>
      <trkpt lat="48.46062" lon="2.70837">
        <ele>79.8</ele>
        <time>2019-06-29T17:45:15Z</time>
      </trkpt>
      <trkpt lat="48.45964" lon="2.71139">
        <ele>100.7</ele>
        <time>2019-06-29T17:46:45Z</time>
      </trkpt>
      <trkpt lat="48.46411" lon="2.71979">
        <ele>95.8</ele>
        <time>2019-06-29T17:51:31Z</time>
      </trkpt>
      <trkpt lat="48.46619" lon="2.72362">
        <ele>92.1</ele>
        <time>2019-06-29T17:53:42Z</time>
      </trkpt>
      <trkpt lat="48.46904" lon="2.72296">
        <ele>65.8</ele>
        <time>2019-06-29T17:55:38Z</time>
      </trkpt>
      <trkpt lat="48.47022" lon="2.72046">
        <ele>74.5</ele>
        <time>2019-06-29T17:56:59Z</time>
      </trkpt>
      <trkpt lat="48.47459" lon="2.71836">
        <ele>67.2</ele>
        <time>2019-06-29T18:00:03Z</time>
      </trkpt>
      <trkpt lat="48.47508" lon="2.71795">
        <ele>67.1</ele>
        <time>2019-06-29T18:00:25Z</time>
      </trkpt>
      <trkpt lat="48.47805" lon="2.71992">
        <ele>66.9</ele>
        <time>2019-06-29T18:02:35Z</time>
      </trkpt>
      <trkpt lat="48.47921" lon="2.72028">
        <ele>58.2</ele>
        <time>2019-06-29T18:03:22Z</time>
      </trkpt>
      <trkpt lat="48.47979" lon="2.72152">
        <ele>62.9</ele>
        <time>2019-06-29T18:04:03Z</time>
      </trkpt>
      <trkpt lat="48.48055" lon="2.72175">
        <ele>55.4</ele>
        <time>2019-06-29T18:04:34Z</time>
      </trkpt>
      <trkpt lat="48.48025" lon="2.71559">
        <ele>50.4</ele>
        <time>2019-06-29T18:07:17Z</time>
      </trkpt>
      <trkpt lat="48.48172" lon="2.71478">
        <ele>42.4</ele>
        <time>2019-06-29T18:08:20Z</time>
      </trkpt>
      <trkpt lat="48.48096" lon="2.70944">
        <ele>42.1</ele>
        <time>2019-06-29T18:10:45Z</time>
      </trkpt>
      <trkpt lat="48.48164" lon="2.70922">
        <ele>46.2</ele>
        <time>2019-06-29T18:11:13Z</time>
      </trkpt>
      <trkpt lat="48.48173" lon="2.70635">
        <ele>40.8</ele>
        <time>2019-06-29T18:12:29Z</time>
      </trkpt>
      <trkpt lat="48.4829" lon="2.71116">
        <ele>48.1</ele>
        <time>2019-06-29T18:14:45Z</time>
      </trkpt>
      <trkpt lat="48.48451" lon="2.71583">
        <ele>49</ele>
        <time>2019-06-29T18:17:05Z</time>
      </trkpt>
      <trkpt lat="48.48529" lon="2.7216">
        <ele>41</ele>
        <time>2019-06-29T18:19:41Z</time>
      </trkpt>
      <trkpt lat="48.48594" lon="2.72883">
        <ele>49.9</ele>
        <time>2019-06-29T18:22:55Z</time>
      </trkpt>
      <trkpt lat="48.48587" lon="2.73235">
        <ele>41.4</ele>
        <time>2019-06-29T18:24:28Z</time>
      </trkpt>
      <trkpt lat="48.48607" lon="2.73665">
        <ele>43.7</ele>
        <time>2019-06-29T18:26:22Z</time>
      </trkpt>
      <trkpt lat="48.48633" lon="2.73998">
        <ele>43.2</ele>
        <time>2019-06-29T18:27:51Z</time>
      </trkpt>
      <trkpt lat="48.48633" lon="2.74301">
        <ele>42</ele>
        <time>2019-06-29T18:29:12Z</time>
      </trkpt>
      <trkpt lat="48.48613" lon="2.74809">
        <ele>38.7</ele>
        <time>2019-06-29T18:31:27Z</time>
      </trkpt>
      <trkpt lat="48.48522" lon="2.75181">
        <ele>47.5</ele>
        <time>2019-06-29T18:33:12Z</time>
      </trkpt>
      <trkpt lat="48.48354" lon="2.75689">
        <ele>44.6</ele>
        <time>2019-06-29T18:35:43Z</time>
      </trkpt>
      <trkpt lat="48.48062" lon="2.76178">
        <ele>39.6</ele>
        <time>2019-06-29T18:38:37Z</time>
      </trkpt>
      <trkpt lat="48.47641" lon="2.76598">
        <ele>48.4</ele>
        <time>2019-06-29T18:41:59Z</time>
      </trkpt>
      <trkpt lat="48.47337" lon="2.76833">
        <ele>47.4</ele>
        <time>2019-06-29T18:44:16Z</time>
      </trkpt>
      <trkpt lat="48.46867" lon="2.77053">
        <ele>40.5</ele>
        <time>2019-06-29T18:47:33Z</time>
      </trkpt>
      <trkpt lat="48.46231" lon="2.77004">
        <ele>36.5</ele>
        <time>2019-06-29T18:51:48Z</time>
      </trkpt>
      <trkpt lat="48.45797" lon="2.76896">
        <ele>38.5</ele>
        <time>2019-06-29T18:54:44Z</time>
      </trkpt>
      <trkpt lat="48.45531" lon="2.76603">
        <ele>41.9</ele>
        <time>2019-06-29T18:56:56Z</time>
      </trkpt>
      <trkpt lat="48.45252" lon="2.76016">
        <ele>55.6</ele>
        <time>2019-06-29T19:00:07Z</time>
      </trkpt>
      <trkpt lat="48.45074" lon="2.75801">
        <ele>47.4</ele>
        <time>2019-06-29T19:01:39Z</time>
      </trkpt>
      <trkpt lat="48.44939" lon="2.75668">
        <ele>55.5</ele>
        <time>2019-06-29T19:02:43Z</time>
      </trkpt>
      <trkpt lat="48.44718" lon="2.75304">
        <ele>44.4</ele>
        <time>2019-06-29T19:04:54Z</time>
      </trkpt>
      <trkpt lat="48.44625" lon="2.75149">
        <ele>51</ele>
        <time>2019-06-29T19:05:50Z</time>
      </trkpt>
      <trkpt lat="48.44513" lon="2.75036">
        <ele>60.8</ele>
        <time>2019-06-29T19:06:44Z</time>
      </trkpt>
      <trkpt lat="48.44173" lon="2.74763">
        <ele>80.8</ele>
        <time>2019-06-29T19:09:18Z</time>
      </trkpt>
      <trkpt lat="48.43819" lon="2.7455">
        <ele>57.6</ele>
        <time>2019-06-29T19:11:51Z</time>
      </trkpt>
      <trkpt lat="48.43614" lon="2.74458">
        <ele>52.8</ele>
        <time>2019-06-29T19:13:16Z</time>
      </trkpt>
      <trkpt lat="48.43255" lon="2.7441">
        <ele>33.3</ele>
        <time>2019-06-29T19:15:41Z</time>
      </trkpt>
      <trkpt lat="48.43055" lon="2.74419">
        <ele>45.4</ele>
        <time>2019-06-29T19:17:01Z</time>
      </trkpt>
      <trkpt lat="48.4299" lon="2.74428">
        <ele>47.5</ele>
        <time>2019-06-29T19:17:27Z</time>
      </trkpt>
      <trkpt lat="48.43013" lon="2.74665">
        <ele>37.4</ele>
        <time>2019-06-29T19:18:30Z</time>
      </trkpt>
      <trkpt lat="48.43533" lon="2.74731">
        <ele>40.3</ele>
        <time>2019-06-29T19:21:59Z</time>
      </trkpt>
      <trkpt lat="48.4382" lon="2.74826">
        <ele>53.5</ele>
        <time>2019-06-29T19:23:57Z</time>
      </trkpt>
      <trkpt lat="48.44234" lon="2.75117">
        <ele>49.3</ele>
        <time>2019-06-29T19:27:00Z</time>
      </trkpt>
      <trkpt lat="48.44583" lon="2.75442">
        <ele>49</ele>
        <time>2019-06-29T19:29:44Z</time>
      </trkpt>
      <trkpt lat="48.44935" lon="2.76004">
        <ele>46.9</ele>
        <time>2019-06-29T19:33:09Z</time>
      </trkpt>
    </trkseg>
  </trk>
</gpx>